EST,Max TemperatureF,Mean TemperatureF,Min TemperatureF,Max Dew PointF,MeanDew PointF,Min DewpointF,Max Humidity, Mean Humidity, Min Humidity, Max Sea Level PressureIn, Mean Sea Level PressureIn, Min Sea Level PressureIn, Max VisibilityMiles, Mean VisibilityMiles, Min VisibilityMiles, Max Wind SpeedMPH, Mean Wind SpeedMPH, Max Gust SpeedMPH,PrecipitationIn, CloudCover, Events, WindDirDegrees
2013-1-1,34,33,31,34,33,29,100,95,89,30.15,30.07,30.03,10,3,0,9,4,12,0.19,8,Fog-Rain,339
2013-1-2,34,29,23,28,23,19,92,78,63,30.25,30.20,30.10,10,8,6,10,3,13,0.00,3,,355
2013-1-3,39,29,19,24,21,18,100,72,44,30.39,30.30,30.24,10,8,3,15,4,22,0.00,0,,259
2013-1-4,38,31,24,25,23,20,88,74,59,30.43,30.39,30.34,10,10,10,20,8,24,0.00,4,,244
2013-1-5,44,34,23,28,25,20,88,71,53,30.42,30.33,30.22,10,10,10,14,7,16,0.00,3,,193
2013-1-6,42,34,25,33,28,19,76,72,67,30.39,30.19,30.07,10,10,9,22,11,28,0.00,7,,255
2013-1-7,42,32,22,25,23,20,96,74,51,30.49,30.39,30.28,10,9,4,12,3,16,0.00,2,,121
2013-1-8,52,41,29,36,29,23,78,63,48,30.37,30.30,30.25,10,10,10,16,8,21,0.00,0,,165
2013-1-9,54,46,38,46,42,37,100,88,76,30.52,30.39,30.25,10,9,1,12,6,16,T,4,Rain,211
2013-1-10,53,46,39,48,41,33,100,83,65,30.51,30.36,30.10,10,10,9,15,10,20,0.02,5,Rain,98
2013-1-11,66,60,53,55,53,48,100,82,63,30.09,29.99,29.90,10,9,1,29,11,36,0.39,4,Rain,200
2013-1-12,65,60,55,63,60,55,100,95,90,30.06,29.99,29.87,10,8,2,18,9,22,0.26,6,Rain,180
2013-1-13,64,50,36,59,53,34,100,87,73,30.17,29.94,29.81,10,8,2,24,11,32,1.71,7,Rain,213
2013-1-14,36,31,26,34,26,23,100,89,78,30.45,30.30,30.16,10,10,10,15,8,20,0.00,7,,360
2013-1-15,32,29,25,30,26,24,100,89,78,30.34,30.22,30.07,10,7,4,17,11,22,0.24,7,Rain,33
2013-1-16,32,32,31,32,31,30,100,96,92,30.13,30.06,29.98,9,5,2,10,5,13,0.17,7,,275
2013-1-17,39,34,29,32,29,24,100,88,76,30.40,30.20,30.11,10,8,4,20,7,24,0.00,1,,23
2013-1-18,40,30,20,25,21,16,85,70,54,30.55,30.46,30.33,10,10,10,14,7,18,0.00,0,,163
2013-1-19,54,43,32,30,26,22,72,52,32,30.32,30.19,30.04,10,10,10,28,16,36,0.00,0,,203
2013-1-20,45,36,26,31,19,7,76,51,25,30.23,30.16,30.04,10,10,10,22,9,31,0.00,0,,279
2013-1-21,32,23,14,17,10,3,84,59,34,30.28,30.18,30.13,10,10,10,26,10,37,0.00,2,,278
2013-1-22,21,16,10,2,-1,-4,66,51,35,30.44,30.37,30.28,10,10,10,16,8,21,0.00,1,,285
2013-1-23,33,22,10,16,9,2,76,58,39,30.40,30.28,30.11,10,10,10,14,5,17,0.00,3,,240
2013-1-24,28,22,15,18,4,-3,68,50,32,30.57,30.44,30.15,10,10,10,25,11,33,0.00,0,,26
2013-1-25,27,24,20,25,19,5,100,73,45,30.39,30.16,30.05,10,7,2,18,8,21,0.02,7,Rain-Snow,190
2013-1-26,36,29,22,26,21,18,100,76,52,30.44,30.31,30.19,10,7,2,15,6,21,0.00,2,,269
2013-1-27,45,33,20,40,26,19,93,69,45,30.43,30.35,30.22,10,9,5,15,9,18,0.18,4,Rain,131
2013-1-28,54,48,41,52,46,38,100,86,71,30.20,30.15,30.10,10,8,3,22,14,28,0.24,7,Rain,195
2013-1-29,67,58,49,57,53,48,100,84,68,30.12,29.96,29.67,10,10,10,25,16,35,0.03,4,,186
2013-1-30,67,50,33,59,49,27,100,87,73,29.65,29.49,29.36,10,9,1,36,18,47,0.94,7,Rain,230
2013-1-31,34,27,20,29,22,17,100,80,59,30.06,29.93,29.72,10,6,0,35,16,43,0.07,8,Fog-Snow,263